Orange, Connecticut
Current Conditions -  °F | °C
As of 8:53 AM on Saturday 25 Oct 2014 (Local Time) from KHVN Reporting Station
Clear Clear  
Wind Chill: 53°   Ceiling: Unl
Heat Index: 53°   Visibility: 10mi
Dew Point: 41°   Wind: 5mph
Humidity: 64%   Direction: 310°NW
Pressure: 29.83"   Gusts: NA
Location:  41.28°N, 73.03°W
Report Text: KHVN 251253Z 31004KT 10SM CLR 12/05 A2983 RMK AO2 SLP099 T01170050
Loading
Personal Weather Stations






























Interactive Weather Map
Tropical Storm Tracking
New forecast layout! Learn more

10-Day Weather Forecast

Advertisements
Track Severe Weather on mobile